createdAt,value
2019-01-20T00:00:57.890Z,11.65
2019-01-20T00:06:52.819Z,11.57
2019-01-20T00:12:47.858Z,8.63
2019-01-20T00:18:42.866Z,7.81
2019-01-20T00:24:37.834Z,8.8
2019-01-20T00:30:32.824Z,8.17
2019-01-20T00:36:27.838Z,8.47
2019-01-20T00:42:22.859Z,8.8
2019-01-20T00:48:17.883Z,7.76
2019-01-20T00:54:12.844Z,7.7
2019-01-20T01:00:07.859Z,6.86
2019-01-20T01:06:02.869Z,7.3
2019-01-20T01:11:57.900Z,6.65
2019-01-20T01:17:52.918Z,9.39
2019-01-20T01:23:47.859Z,6.72
2019-01-20T01:29:42.884Z,9.53
2019-01-20T01:35:37.905Z,10.22
2019-01-20T01:41:38.976Z,5.82
2019-01-20T01:47:27.903Z,6.65
2019-01-20T01:53:22.876Z,6
2019-01-20T01:59:17.901Z,4.91
2019-01-20T02:05:12.892Z,4.92
2019-01-20T02:11:07.893Z,4.95
2019-01-20T02:17:02.962Z,5.37
2019-01-20T02:22:57.916Z,5.04
2019-01-20T02:28:52.914Z,5.26
2019-01-20T02:34:47.908Z,6.12
2019-01-20T02:40:42.986Z,5.35
2019-01-20T02:46:37.940Z,5.13
2019-01-20T02:52:32.969Z,4.77
2019-01-20T02:58:27.915Z,5.22
2019-01-20T03:04:22.915Z,4.23
2019-01-20T03:10:17.941Z,19.12
2019-01-20T03:16:12.925Z,4.94
2019-01-20T03:22:07.927Z,9.8
2019-01-20T03:28:02.938Z,9.43
2019-01-20T03:33:57.953Z,6.46
2019-01-20T03:39:52.946Z,7.52
2019-01-20T03:45:47.976Z,8.8
2019-01-20T03:51:42.937Z,8.26
2019-01-20T03:57:37.945Z,8.56
2019-01-20T04:03:32.961Z,5.98
2019-01-20T04:09:27.986Z,8.09
2019-01-20T04:15:22.961Z,8.58
2019-01-20T04:21:17.957Z,8.88
2019-01-20T04:27:12.972Z,8.37
2019-01-20T04:33:07.961Z,10.68
2019-01-20T04:39:03.030Z,5.92
2019-01-20T04:44:57.966Z,5.38
2019-01-20T04:50:52.995Z,4.88
2019-01-20T04:56:47.969Z,3.79
2019-01-20T05:02:42.976Z,3.64
2019-01-20T05:08:37.983Z,6.59
2019-01-20T05:14:33.042Z,5.37
2019-01-20T05:20:27.990Z,6.5
2019-01-20T05:26:22.997Z,3.82
2019-01-20T05:32:17.990Z,3.21
2019-01-20T05:38:13.015Z,4.16
2019-01-20T05:44:07.998Z,4.33
2019-01-20T05:50:03.012Z,5.01
2019-01-20T05:55:58.025Z,5.09
2019-01-20T06:01:53.026Z,4.57
2019-01-20T06:07:48.043Z,3.96
2019-01-20T06:13:43.012Z,3.43
2019-01-20T06:19:38.048Z,4.32
2019-01-20T06:25:33.048Z,2.82
2019-01-20T06:31:28.046Z,5.32
2019-01-20T06:37:23.027Z,3.93
2019-01-20T06:43:18.030Z,4.36
2019-01-20T06:49:13.012Z,4.02
2019-01-20T06:55:08.028Z,6.32
2019-01-20T07:01:03.047Z,8.13
2019-01-20T07:06:58.043Z,8.71
2019-01-20T07:12:53.065Z,10.35
2019-01-20T07:18:49.496Z,10.2
2019-01-20T07:24:43.115Z,10.63
2019-01-20T07:30:38.093Z,11.58
2019-01-20T07:36:33.068Z,11.66
2019-01-20T07:42:28.099Z,11.16
2019-01-20T07:48:23.068Z,10.9
2019-01-20T07:54:18.064Z,10.27
2019-01-20T08:00:13.065Z,10.82
2019-01-20T08:06:08.082Z,10.57
2019-01-20T08:12:03.085Z,10.5
2019-01-20T08:17:58.087Z,10.55
2019-01-20T08:23:53.070Z,10.47
2019-01-20T08:29:48.104Z,11.85
2019-01-20T08:35:43.077Z,11.2
2019-01-20T08:41:38.097Z,10.79
2019-01-20T08:47:33.089Z,10.42
2019-01-20T08:53:28.436Z,9.82
2019-01-20T08:59:23.088Z,9.62
2019-01-20T09:05:18.146Z,9.82
2019-01-20T09:11:13.106Z,10.18
2019-01-20T09:17:08.168Z,10.85
2019-01-20T09:23:03.163Z,11.13
2019-01-20T09:28:58.128Z,8.53
2019-01-20T09:34:53.169Z,6.64
2019-01-20T09:40:48.123Z,8.96
2019-01-20T09:46:43.113Z,10.06
2019-01-20T09:52:38.125Z,11.39
2019-01-20T09:58:33.160Z,9.21
2019-01-20T10:04:28.111Z,8.15
2019-01-20T10:10:23.127Z,7.85
2019-01-20T10:16:18.141Z,5.85
2019-01-20T10:22:13.138Z,4.66
2019-01-20T10:28:08.151Z,5.2
2019-01-20T10:34:03.156Z,4.85
2019-01-20T10:39:58.157Z,4.93
2019-01-20T10:45:53.160Z,5.94
2019-01-20T10:51:48.199Z,6.47
2019-01-20T10:57:43.223Z,6.37
2019-01-20T11:03:38.172Z,7.23
2019-01-20T11:09:33.160Z,9.31
2019-01-20T11:15:28.180Z,6.22
2019-01-20T11:21:23.159Z,5.47
2019-01-20T11:27:18.178Z,5.11
2019-01-20T11:33:13.226Z,5.45
2019-01-20T11:39:08.225Z,6.07
2019-01-20T11:45:03.189Z,5.68
2019-01-20T11:50:58.177Z,5.73
2019-01-20T11:56:53.175Z,5.97
2019-01-20T12:02:48.199Z,10.35
2019-01-20T12:08:43.196Z,6.39
2019-01-20T12:14:38.228Z,8.27
2019-01-20T12:20:33.194Z,7.48
2019-01-20T12:26:28.190Z,5.82
2019-01-20T12:32:23.196Z,6.71
2019-01-20T12:38:18.197Z,8.61
2019-01-20T12:44:13.247Z,9.54
2019-01-20T12:50:08.205Z,8.94
2019-01-20T12:56:03.240Z,6.93
2019-01-20T13:01:58.214Z,10.47
2019-01-20T13:07:53.228Z,10.73
2019-01-20T13:13:48.347Z,6.76
2019-01-20T13:19:43.234Z,4.13
2019-01-20T13:25:38.229Z,3.38
2019-01-20T13:31:33.306Z,3.18
2019-01-20T13:37:28.239Z,3.52
2019-01-20T13:43:23.267Z,4.17
2019-01-20T13:49:18.243Z,4.33
2019-01-20T13:55:13.238Z,3.64
2019-01-20T14:01:08.242Z,3.34
2019-01-20T14:07:03.285Z,3.2
2019-01-20T14:12:58.297Z,2.82
2019-01-20T14:18:53.324Z,4.32
2019-01-20T14:24:48.274Z,5.06
2019-01-20T14:30:43.284Z,4.43
2019-01-20T14:36:38.301Z,4.93
2019-01-20T14:42:33.276Z,4.23
2019-01-20T14:48:28.288Z,4.03
2019-01-20T14:54:23.331Z,3.57
2019-01-20T15:00:18.325Z,3.44
2019-01-20T15:06:13.290Z,2.49
2019-01-20T15:12:08.313Z,3.22
2019-01-20T15:18:03.314Z,4.4
2019-01-20T15:23:58.304Z,3.14
2019-01-20T15:29:53.328Z,3.88
2019-01-20T15:35:48.351Z,3.4
2019-01-20T15:41:43.329Z,3.82
2019-01-20T15:47:38.313Z,4.28
2019-01-20T15:53:33.308Z,2.95
2019-01-20T15:59:28.304Z,3.42
2019-01-20T16:05:23.332Z,3.08
2019-01-20T16:11:18.311Z,3.41
2019-01-20T16:17:13.326Z,4.12
2019-01-20T16:23:08.340Z,3.86
2019-01-20T16:29:03.378Z,3.03
2019-01-20T16:34:58.345Z,3.3
2019-01-20T16:40:53.373Z,3.76
2019-01-20T16:46:48.331Z,2.56
2019-01-20T16:52:43.383Z,2.55
2019-01-20T16:58:38.366Z,3.79
2019-01-20T17:04:33.352Z,3.98
2019-01-20T17:10:28.340Z,4.5
2019-01-20T17:16:23.339Z,4.7
2019-01-20T17:22:18.351Z,4.36
2019-01-20T17:28:13.344Z,5.42
2019-01-20T17:34:08.361Z,7.55
2019-01-20T17:40:03.352Z,8.31
2019-01-20T17:45:58.365Z,8.18
2019-01-20T17:51:53.371Z,9.03
2019-01-20T17:57:48.379Z,9.67
2019-01-20T18:03:43.379Z,27.18
2019-01-20T18:09:38.406Z,15.3
2019-01-20T18:15:33.371Z,15.77
2019-01-20T18:21:28.394Z,22.76
2019-01-20T18:27:23.378Z,15.86
2019-01-20T18:33:18.388Z,19.47
2019-01-20T18:39:13.412Z,32.16
2019-01-20T18:45:08.433Z,19.41
2019-01-20T18:51:03.452Z,21.88
2019-01-20T18:56:58.415Z,22.94
2019-01-20T19:02:53.412Z,26.15
2019-01-20T19:08:48.428Z,25.69
2019-01-20T19:14:43.448Z,18.53
2019-01-20T19:20:38.410Z,15.39
2019-01-20T19:26:33.416Z,16.87
2019-01-20T19:32:28.453Z,14.06
2019-01-20T19:38:23.450Z,10.27
2019-01-20T19:44:18.439Z,8.24
2019-01-20T19:50:13.508Z,10.68
2019-01-20T19:56:08.426Z,18.48
2019-01-20T20:02:03.469Z,14.49
2019-01-20T20:07:58.456Z,11.06
2019-01-20T20:13:53.457Z,9.71
2019-01-20T20:19:48.445Z,7.87
2019-01-20T20:25:43.461Z,7.51
2019-01-20T20:31:38.453Z,13.1
2019-01-20T20:37:33.496Z,7.93
2019-01-20T20:43:28.474Z,8
2019-01-20T20:49:23.513Z,8.49
2019-01-20T20:55:18.470Z,10.04
2019-01-20T21:01:13.477Z,16.61
2019-01-20T21:07:08.467Z,14.49
2019-01-20T21:13:03.491Z,15.44
2019-01-20T21:18:58.478Z,13.49
2019-01-20T21:24:53.508Z,15.27
2019-01-20T21:30:48.495Z,18.44
2019-01-20T21:36:43.527Z,26.04
2019-01-20T21:42:38.517Z,18.4
2019-01-20T21:48:33.598Z,18.68
2019-01-20T21:54:28.562Z,14.41
2019-01-20T22:00:23.489Z,13.42
2019-01-20T22:06:18.520Z,10.96
2019-01-20T22:12:13.490Z,9.75
2019-01-20T22:18:08.563Z,11.44
2019-01-20T22:24:03.573Z,10.62
2019-01-20T22:29:58.539Z,11.28
2019-01-20T22:35:53.511Z,11.76
2019-01-20T22:41:48.564Z,12.42
2019-01-20T22:47:43.545Z,14.81
2019-01-20T22:53:38.584Z,14.53
2019-01-20T22:59:33.551Z,13.47
2019-01-20T23:05:28.527Z,12.96
2019-01-20T23:11:23.583Z,14.03
2019-01-20T23:17:18.534Z,14.15
2019-01-20T23:23:13.555Z,14.84
2019-01-20T23:29:08.589Z,14.34
2019-01-20T23:35:03.555Z,11.38
2019-01-20T23:40:58.576Z,11.38
2019-01-20T23:46:53.561Z,12.02
2019-01-20T23:52:48.604Z,12.75
2019-01-20T23:58:43.556Z,13.01
